Terminal Aerodrome Forecast
Issued by NWS Brownsville, TX

Home | Current Version | Previous Version | Text Only | Print | Product List | Glossary On
Versions: 1 2 3 4 5 6 7 8 9 10 11 12 13 14 15 16 17 18
000
FTUS44 KBRO 280618 AAA
TAFHRL
TAF AMD
KHRL 280618Z 2806/2906 14008KT P6SM SCT018
      TEMPO 2806/2810 BKN016
     FM281100 15008KT 6SM HZ SCT012 BKN015
     FM281500 16018G25KT P6SM FEW030 SCT250
     FM290200 15012KT P6SM SCT020=

USA.gov is the U.S. government's official web portal to all federal, state and local government web resources and services.